Time;durP1;ratioP1;P1;durP2;ratioP2;P2;SDS_P1;SDS_P2;PMS_P1;PMS_P2;Temp;Humidity;BMP_temperature;BMP_pressure;BME280_temperature;BME280_humidity;BME280_pressure;Samples;Min_cycle;Max_cycle;Signal;HPM_P1;HPM_P2
2023/04/27 00:01:00;;;;;;;7.43;4.15;;;;;;;6.22;85.02;101976.50;5271276;28;20028;-68
2023/04/27 00:03:31;;;;;;;5.72;3.92;;;;;;;6.20;83.22;101984.34;5271112;28;20035;-69
2023/04/27 00:06:03;;;;;;;6.28;3.92;;;;;;;6.11;84.44;101987.41;5292987;28;20038;-70
2023/04/27 00:08:34;;;;;;;6.28;4.00;;;;;;;6.07;84.78;101983.25;5275359;28;20119;-68
2023/04/27 00:11:05;;;;;;;4.93;3.83;;;;;;;6.09;84.49;101984.84;5270711;28;20036;-68
2023/04/27 00:13:37;;;;;;;7.90;3.90;;;;;;;6.04;86.04;101978.19;5277182;28;20020;-68
2023/04/27 00:16:08;;;;;;;6.78;3.60;;;;;;;5.98;86.95;101978.47;5280772;28;20031;-68
2023/04/27 00:18:39;;;;;;;5.30;3.67;;;;;;;5.97;86.26;101985.44;5278971;28;20927;-68
2023/04/27 00:21:11;;;;;;;6.50;3.90;;;;;;;5.96;87.46;101978.56;5278840;28;20023;-68
2023/04/27 00:23:42;;;;;;;6.82;4.07;;;;;;;5.92;87.13;101983.97;5279205;28;20028;-68
2023/04/27 00:26:13;;;;;;;7.10;4.30;;;;;;;5.81;87.98;101984.47;5277508;28;20476;-68
2023/04/27 00:28:45;;;;;;;7.30;4.13;;;;;;;5.80;89.15;101988.81;5275543;28;20032;-68
2023/04/27 00:31:17;;;;;;;7.53;4.20;;;;;;;5.77;89.88;101983.75;5275286;28;20020;-68
2023/04/27 00:33:48;;;;;;;5.55;4.68;;;;;;;5.93;88.94;101985.66;5278525;28;20547;-68
2023/04/27 00:36:19;;;;;;;7.40;3.83;;;;;;;5.80;88.50;101982.78;5277816;28;20114;-68
2023/04/27 00:38:50;;;;;;;6.15;3.83;;;;;;;5.74;89.60;101983.88;5274919;28;20032;-68
2023/04/27 00:41:22;;;;;;;6.70;4.10;;;;;;;5.69;89.49;101974.63;5279903;28;20067;-68
2023/04/27 00:43:53;;;;;;;7.57;4.07;;;;;;;5.67;89.79;101974.69;5277323;28;20036;-68
2023/04/27 00:46:26;;;;;;;8.63;4.45;;;;;;;5.63;91.22;101982.69;5278764;28;20025;-68
2023/04/27 00:48:58;;;;;;;5.00;4.43;;;;;;;5.54;91.93;101978.78;5280851;28;20034;-68
2023/04/27 00:51:30;;;;;;;5.20;4.25;;;;;;;5.52;92.15;101971.03;5291724;28;20481;-68
2023/04/27 00:54:02;;;;;;;7.57;4.45;;;;;;;5.56;89.77;101976.94;5282118;28;20036;-68
2023/04/27 00:56:33;;;;;;;8.20;3.80;;;;;;;5.48;91.11;101974.69;5273535;28;20998;-68
2023/04/27 00:59:05;;;;;;;6.63;3.95;;;;;;;5.39;89.55;101969.91;5278866;28;20416;-68
2023/04/27 01:01:36;;;;;;;7.18;4.10;;;;;;;5.42;90.03;101982.78;5276182;28;20481;-68
2023/04/27 01:04:08;;;;;;;7.00;4.70;;;;;;;5.41;90.31;101975.88;5276271;28;20043;-68
2023/04/27 01:06:39;;;;;;;7.10;4.05;;;;;;;5.39;92.21;101972.50;5274115;28;20064;-68
2023/04/27 01:09:10;;;;;;;7.80;4.55;;;;;;;5.33;91.52;101975.38;5279118;28;20819;-68
2023/04/27 01:11:41;;;;;;;5.10;4.05;;;;;;;5.24;93.46;101975.78;5274559;28;20068;-68
2023/04/27 01:14:13;;;;;;;6.63;3.80;;;;;;;5.19;92.69;101972.53;5276182;28;20024;-68
2023/04/27 01:16:45;;;;;;;6.70;4.47;;;;;;;5.20;93.81;101971.66;5279003;28;20071;-68
2023/04/27 01:19:16;;;;;;;4.80;3.67;;;;;;;5.16;93.64;101977.88;5280831;28;20477;-68
2023/04/27 01:21:47;;;;;;;6.03;4.07;;;;;;;5.17;94.29;101979.56;5279102;28;20553;-68
2023/04/27 01:24:19;;;;;;;6.15;4.32;;;;;;;5.12;94.78;101982.38;5283353;28;20019;-68
2023/04/27 01:26:52;;;;;;;5.95;4.05;;;;;;;5.08;93.12;101986.03;5280851;28;20121;-68
2023/04/27 01:29:24;;;;;;;8.10;4.28;;;;;;;5.03;94.22;101981.00;5279095;28;20028;-68
2023/04/27 01:31:55;;;;;;;7.47;4.15;;;;;;;5.00;94.16;101985.47;5276730;28;20028;-68
2023/04/27 01:34:26;;;;;;;6.03;4.30;;;;;;;4.94;94.52;101983.16;5280180;28;20048;-68
2023/04/27 01:36:57;;;;;;;7.85;4.78;;;;;;;4.92;94.30;101985.81;5279973;28;20269;-68
2023/04/27 01:39:29;;;;;;;8.07;4.65;;;;;;;4.90;96.05;101974.66;5281332;28;20093;-68
2023/04/27 01:42:02;;;;;;;7.75;4.60;;;;;;;4.85;97.53;101974.03;5279158;28;20460;-67
2023/04/27 01:44:33;;;;;;;7.82;4.50;;;;;;;5.02;99.39;101978.47;5280327;28;20028;-67
2023/04/27 01:47:05;;;;;;;5.72;4.00;;;;;;;4.86;97.66;101970.50;5278822;28;20048;-67
2023/04/27 01:49:36;;;;;;;5.78;4.28;;;;;;;4.92;96.11;101972.81;5279277;28;20024;-67
2023/04/27 01:52:07;;;;;;;6.82;4.88;;;;;;;4.92;97.51;101974.59;5280201;28;20034;-68
2023/04/27 01:54:38;;;;;;;8.13;4.55;;;;;;;4.88;96.82;101968.69;5278573;28;20032;-67
2023/04/27 01:57:10;;;;;;;8.77;4.78;;;;;;;4.87;95.93;101967.84;5282706;28;20031;-67
2023/04/27 01:59:41;;;;;;;7.30;4.55;;;;;;;4.87;96.50;101969.59;5279696;28;20052;-67
2023/04/27 02:02:12;;;;;;;7.95;4.57;;;;;;;4.85;98.40;101966.25;5276119;28;20024;-67
2023/04/27 02:04:44;;;;;;;6.50;4.93;;;;;;;4.82;98.02;101962.00;5278786;28;20275;-67
2023/04/27 02:07:15;;;;;;;7.20;4.53;;;;;;;4.78;96.38;101957.84;5278259;28;20507;-67
2023/04/27 02:09:46;;;;;;;8.82;5.10;;;;;;;4.82;95.88;101966.38;5286325;28;20024;-67
2023/04/27 02:12:17;;;;;;;5.35;4.60;;;;;;;4.82;95.03;101961.16;5280927;28;20024;-67
2023/04/27 02:14:49;;;;;;;6.32;4.70;;;;;;;4.78;96.99;101959.63;5281042;28;20032;-67
2023/04/27 02:17:20;;;;;;;6.93;4.68;;;;;;;4.76;97.32;101966.63;5279592;28;20032;-67
2023/04/27 02:19:51;;;;;;;8.48;5.55;;;;;;;4.73;97.39;101964.97;5296609;28;20431;-67
2023/04/27 02:22:23;;;;;;;8.52;5.32;;;;;;;4.69;96.98;101955.63;5277450;28;20278;-67
2023/04/27 02:24:54;;;;;;;6.22;4.50;;;;;;;4.69;98.17;101954.78;5280127;28;20031;-67
2023/04/27 02:27:25;;;;;;;9.63;5.75;;;;;;;4.60;98.03;101937.88;5277115;28;20043;-67
2023/04/27 02:29:57;;;;;;;9.57;5.50;;;;;;;4.62;97.77;101936.91;5277685;28;20039;-67
2023/04/27 02:32:28;;;;;;;8.43;5.15;;;;;;;4.64;98.73;101940.25;5277898;28;20059;-67
2023/04/27 02:35:00;;;;;;;7.68;5.05;;;;;;;4.61;99.77;101944.75;5281932;28;20034;-67
2023/04/27 02:37:31;;;;;;;8.52;5.40;;;;;;;4.66;100.00;101948.00;5280277;28;20031;-67
2023/04/27 02:40:06;;;;;;;7.25;4.88;;;;;;;4.54;99.98;101941.56;5277611;28;20024;-67
2023/04/27 02:42:37;;;;;;;9.10;5.65;;;;;;;4.59;99.24;101944.81;5278644;28;20028;-67
2023/04/27 02:45:09;;;;;;;8.10;5.10;;;;;;;4.56;100.00;101939.75;5276973;28;20031;-67
2023/04/27 02:47:40;;;;;;;7.50;5.55;;;;;;;4.61;100.00;101945.56;5276706;28;20039;-67
2023/04/27 02:50:12;;;;;;;9.20;5.07;;;;;;;4.52;100.00;101945.97;5279010;28;20102;-67
2023/04/27 02:52:43;;;;;;;8.77;5.18;;;;;;;4.49;100.00;101950.44;5279721;28;20071;-67
2023/04/27 02:55:15;;;;;;;8.30;5.53;;;;;;;4.45;100.00;101952.31;5277779;28;20115;-67
2023/04/27 02:57:46;;;;;;;7.05;5.15;;;;;;;4.43;100.00;101951.53;5278032;28;20036;-67
2023/04/27 03:00:18;;;;;;;9.30;5.32;;;;;;;4.37;100.00;101944.88;5275354;28;20032;-67
2023/04/27 03:02:49;;;;;;;8.60;5.68;;;;;;;4.33;100.00;101943.31;5278021;28;20431;-67
2023/04/27 03:05:21;;;;;;;10.95;6.15;;;;;;;4.36;100.00;101942.34;5277278;28;20028;-67
2023/04/27 03:07:52;;;;;;;8.32;5.03;;;;;;;4.30;100.00;101937.38;5276004;28;20063;-67
2023/04/27 03:10:24;;;;;;;9.35;5.88;;;;;;;4.30;100.00;101935.63;5278426;28;20262;-67
2023/04/27 03:12:55;;;;;;;9.88;5.20;;;;;;;4.31;100.00;101933.88;5278594;28;20032;-67
2023/04/27 03:15:26;;;;;;;8.75;5.30;;;;;;;4.29;100.00;101936.56;5275987;28;20063;-67
2023/04/27 03:17:57;;;;;;;11.13;5.80;;;;;;;4.30;100.00;101940.81;5280342;28;20028;-67
2023/04/27 03:20:29;;;;;;;9.00;5.50;;;;;;;4.27;100.00;101945.28;5278439;28;20024;-67
2023/04/27 03:23:00;;;;;;;8.77;5.78;;;;;;;4.23;100.00;101947.16;5279629;28;20032;-66
2023/04/27 03:25:31;;;;;;;10.38;5.43;;;;;;;4.28;100.00;101946.97;5282003;28;20147;-67
2023/04/27 03:28:03;;;;;;;9.52;6.38;;;;;;;4.22;100.00;101952.44;5278497;28;20260;-66
2023/04/27 03:30:34;;;;;;;8.40;6.05;;;;;;;4.19;100.00;101955.13;5274011;28;20027;-67
2023/04/27 03:33:05;;;;;;;10.32;5.63;;;;;;;4.23;100.00;101952.34;5277165;28;20028;-66
2023/04/27 03:35:37;;;;;;;9.15;6.18;;;;;;;4.18;100.00;101956.06;5279401;28;20028;-67
2023/04/27 03:38:08;;;;;;;13.27;6.35;;;;;;;4.27;100.00;101960.84;5275851;28;20027;-67
2023/04/27 03:40:39;;;;;;;8.45;5.38;;;;;;;4.17;100.00;101960.41;5293477;28;20039;-67
2023/04/27 03:43:10;;;;;;;12.00;7.05;;;;;;;4.18;100.00;101963.84;5277218;28;20092;-67
2023/04/27 03:45:42;;;;;;;9.85;5.82;;;;;;;4.26;100.00;101954.84;5277184;28;20115;-67
2023/04/27 03:48:14;;;;;;;9.32;7.13;;;;;;;4.17;100.00;101960.41;5278654;28;20032;-67
2023/04/27 03:50:46;;;;;;;9.07;5.72;;;;;;;4.14;100.00;101961.34;5279720;28;20434;-67
2023/04/27 03:53:17;;;;;;;9.15;6.68;;;;;;;4.15;100.00;101951.81;5278729;28;20111;-67
2023/04/27 03:55:48;;;;;;;10.68;6.60;;;;;;;4.08;100.00;101955.56;5278356;28;20059;-67
2023/04/27 03:58:19;;;;;;;8.90;5.90;;;;;;;4.11;100.00;101965.81;5278480;28;20027;-67
2023/04/27 04:00:51;;;;;;;11.75;6.32;;;;;;;4.10;100.00;101966.75;5279577;28;20611;-67
2023/04/27 04:03:22;;;;;;;12.00;6.28;;;;;;;4.06;100.00;101959.97;5278221;28;20137;-67
2023/04/27 04:05:53;;;;;;;8.85;6.25;;;;;;;4.03;100.00;101968.72;5296989;28;20027;-67
2023/04/27 04:08:24;;;;;;;8.30;6.13;;;;;;;4.08;100.00;101965.94;5277510;28;20032;-67
2023/04/27 04:10:56;;;;;;;8.90;6.40;;;;;;;4.03;100.00;101960.09;5278323;28;20016;-67
2023/04/27 04:13:27;;;;;;;11.93;5.90;;;;;;;4.05;100.00;101964.34;5278509;28;20242;-67
2023/04/27 04:16:07;;;;;;;8.00;6.30;;;;;;;4.13;100.00;101957.09;5276943;28;20020;-67
2023/04/27 04:18:38;;;;;;;9.15;6.13;;;;;;;3.93;100.00;101961.34;5281157;28;20055;-67
2023/04/27 04:21:10;;;;;;;9.98;6.78;;;;;;;3.94;100.00;101969.09;5277590;28;20116;-67
2023/04/27 04:23:41;;;;;;;8.52;6.28;;;;;;;3.89;100.00;101971.84;5275284;28;20083;-67
2023/04/27 04:26:13;;;;;;;8.00;6.22;;;;;;;3.85;100.00;101975.47;5276862;28;20043;-67
2023/04/27 04:28:45;;;;;;;8.65;6.47;;;;;;;3.84;100.00;101970.34;5277808;28;20040;-67
2023/04/27 04:31:17;;;;;;;10.05;6.18;;;;;;;3.81;100.00;101975.63;5279478;28;20024;-67
2023/04/27 04:33:48;;;;;;;12.68;6.40;;;;;;;3.81;100.00;101973.03;5278587;28;20041;-67
2023/04/27 04:36:19;;;;;;;7.57;6.30;;;;;;;3.87;100.00;101980.59;5276178;28;20667;-67
2023/04/27 04:38:52;;;;;;;9.60;6.70;;;;;;;3.87;100.00;101975.41;5275163;28;20024;-67
2023/04/27 04:41:23;;;;;;;8.43;6.57;;;;;;;3.84;100.00;101980.72;5277583;28;20119;-67
2023/04/27 04:43:55;;;;;;;10.40;6.40;;;;;;;3.82;100.00;101991.13;5277718;28;20042;-67
2023/04/27 04:46:26;;;;;;;9.40;6.50;;;;;;;3.81;100.00;101994.63;5277211;28;20039;-67
2023/04/27 04:48:57;;;;;;;10.65;6.72;;;;;;;3.90;100.00;102001.19;5275538;28;20089;-67
2023/04/27 04:51:28;;;;;;;10.52;6.43;;;;;;;3.83;100.00;101987.66;5280945;28;20012;-67
2023/04/27 04:54:00;;;;;;;10.98;6.80;;;;;;;3.86;100.00;101984.06;5282605;28;20028;-67
2023/04/27 04:56:31;;;;;;;10.02;6.55;;;;;;;3.83;100.00;101987.66;5282758;28;20033;-67
2023/04/27 04:59:03;;;;;;;9.55;6.72;;;;;;;3.94;100.00;102000.22;5279192;28;20024;-67
2023/04/27 05:01:34;;;;;;;10.40;6.88;;;;;;;3.96;100.00;101995.78;5283187;28;20036;-67
2023/04/27 05:04:05;;;;;;;8.90;6.65;;;;;;;4.06;100.00;102002.31;5282798;28;20113;-67
2023/04/27 05:06:36;;;;;;;9.82;6.63;;;;;;;4.02;100.00;101997.31;5280587;28;20358;-67
2023/04/27 05:09:08;;;;;;;9.25;5.97;;;;;;;4.07;100.00;102000.56;5279222;28;20024;-68
2023/04/27 05:11:39;;;;;;;9.75;7.13;;;;;;;4.11;100.00;101997.78;5284966;28;20039;-67
2023/04/27 05:14:10;;;;;;;11.30;6.78;;;;;;;4.12;100.00;101996.03;5283679;28;20031;-67
2023/04/27 05:16:42;;;;;;;9.65;6.70;;;;;;;4.15;100.00;101999.34;5280031;28;20036;-67
2023/04/27 05:19:17;;;;;;;8.93;6.80;;;;;;;4.23;100.00;101999.03;5281813;28;20470;-67
2023/04/27 05:21:48;;;;;;;10.63;7.22;;;;;;;4.28;100.00;101998.84;5281604;28;20040;-67
2023/04/27 05:24:19;;;;;;;9.32;6.55;;;;;;;4.34;100.00;102009.84;5283252;28;20450;-67
2023/04/27 05:26:51;;;;;;;9.77;6.80;;;;;;;4.37;100.00;102006.28;5282157;28;20311;-67
2023/04/27 05:29:22;;;;;;;10.50;6.82;;;;;;;4.46;100.00;102002.47;5283965;28;20047;-67
2023/04/27 05:31:54;;;;;;;9.32;6.55;;;;;;;4.48;100.00;102005.84;5278855;28;20024;-67
2023/04/27 05:34:25;;;;;;;10.43;7.22;;;;;;;4.51;100.00;102005.72;5279348;28;20401;-67
2023/04/27 05:36:56;;;;;;;10.98;8.27;;;;;;;4.55;100.00;102010.75;5281342;28;20325;-67
2023/04/27 05:39:28;;;;;;;10.68;7.85;;;;;;;4.64;100.00;102012.09;5282892;28;20306;-69
2023/04/27 05:41:59;;;;;;;13.25;6.90;;;;;;;4.69;100.00;102014.50;5276561;28;20036;-69
2023/04/27 05:44:30;;;;;;;10.05;7.15;;;;;;;4.75;100.00;102016.84;5283127;28;20031;-69
2023/04/27 05:47:02;;;;;;;8.63;6.28;;;;;;;4.84;100.00;102011.25;5283319;28;20032;-69
2023/04/27 05:49:33;;;;;;;9.13;6.70;;;;;;;4.87;100.00;102018.94;5280314;28;20028;-69
2023/04/27 05:52:04;;;;;;;10.43;7.30;;;;;;;5.00;100.00;102016.66;5276607;28;20040;-67
2023/04/27 05:54:36;;;;;;;10.23;7.25;;;;;;;5.07;100.00;102018.91;5278702;28;20354;-67
2023/04/27 05:57:07;;;;;;;10.63;6.95;;;;;;;5.17;100.00;102016.78;5281088;28;20173;-67
2023/04/27 05:59:38;;;;;;;9.05;6.82;;;;;;;5.22;100.00;102021.78;5279322;28;20516;-67
2023/04/27 06:02:10;;;;;;;12.73;6.78;;;;;;;5.32;100.00;102008.31;5277552;28;20530;-67
2023/04/27 06:04:41;;;;;;;10.73;6.68;;;;;;;5.43;100.00;102013.03;5277934;28;20064;-67
2023/04/27 06:07:14;;;;;;;13.20;5.93;;;;;;;5.60;100.00;102020.06;5282297;28;20029;-67
2023/04/27 06:09:45;;;;;;;8.60;5.95;;;;;;;5.67;100.00;102018.88;5285273;28;20024;-67
2023/04/27 06:12:17;;;;;;;10.88;6.38;;;;;;;5.74;100.00;102020.28;5280280;28;20036;-67
2023/04/27 06:14:48;;;;;;;7.75;5.82;;;;;;;5.84;98.02;102021.56;5277542;28;20062;-67
2023/04/27 06:17:20;;;;;;;10.40;5.97;;;;;;;6.02;97.93;102013.84;5278686;28;20032;-67
2023/04/27 06:19:52;;;;;;;8.77;5.40;;;;;;;6.12;96.83;102014.25;5277104;28;20546;-67
2023/04/27 06:22:23;;;;;;;11.18;6.25;;;;;;;6.23;94.58;102012.00;5280806;28;20326;-67
2023/04/27 06:24:54;;;;;;;8.45;6.15;;;;;;;6.34;95.51;102005.34;5279551;28;20074;-67
2023/04/27 06:27:26;;;;;;;9.40;5.47;;;;;;;6.51;91.52;102008.88;5282660;28;20039;-67
2023/04/27 06:29:57;;;;;;;10.48;5.32;;;;;;;6.60;91.37;102008.44;5279615;28;20043;-68
2023/04/27 06:32:29;;;;;;;9.65;6.10;;;;;;;6.72;90.87;102002.63;5280854;28;20032;-67
2023/04/27 06:35:00;;;;;;;9.85;5.90;;;;;;;6.90;92.92;102007.84;5278429;28;20070;-67
2023/04/27 06:37:32;;;;;;;10.73;6.20;;;;;;;7.10;87.93;102018.06;5279424;28;20873;-67
2023/04/27 06:40:04;;;;;;;8.80;5.57;;;;;;;7.21;87.17;102012.31;5279422;28;20020;-68
2023/04/27 06:42:35;;;;;;;8.50;5.63;;;;;;;7.35;86.23;102017.66;5280544;28;20028;-68
2023/04/27 06:45:07;;;;;;;7.82;5.20;;;;;;;7.42;85.02;102019.00;5281977;28;20036;-68
2023/04/27 06:47:38;;;;;;;10.25;5.65;;;;;;;7.57;83.97;102015.56;5277293;28;20024;-68
2023/04/27 06:50:09;;;;;;;9.90;5.80;;;;;;;7.73;84.21;102014.78;5278564;28;20891;-68
2023/04/27 06:52:41;;;;;;;10.77;6.57;;;;;;;7.86;82.98;102005.34;5278827;28;20489;-68
2023/04/27 06:55:12;;;;;;;11.68;6.18;;;;;;;7.98;81.13;102015.09;5280667;28;20035;-68
2023/04/27 06:57:43;;;;;;;16.35;6.68;;;;;;;8.09;79.06;102009.28;5276902;28;20392;-68
2023/04/27 07:00:15;;;;;;;9.35;6.45;;;;;;;8.18;78.10;102005.31;5277871;28;20424;-68
2023/04/27 07:02:46;;;;;;;11.45;6.70;;;;;;;8.29;79.61;102005.53;5278795;28;20504;-68
2023/04/27 07:05:19;;;;;;;14.63;7.00;;;;;;;8.32;76.49;102004.53;5279912;28;20143;-68
2023/04/27 07:07:50;;;;;;;11.80;6.65;;;;;;;8.46;73.69;101997.63;5273441;28;20038;-68
2023/04/27 07:10:22;;;;;;;9.35;6.30;;;;;;;8.62;74.55;101996.75;5280405;28;20028;-68
2023/04/27 07:12:53;;;;;;;9.27;5.93;;;;;;;8.72;74.32;101998.75;5274668;28;20020;-68
2023/04/27 07:15:24;;;;;;;10.32;6.22;;;;;;;8.68;74.12;101997.25;5275483;28;20640;-68
2023/04/27 07:17:56;;;;;;;9.85;6.40;;;;;;;8.81;72.89;101992.13;5280816;28;20056;-68
2023/04/27 07:20:27;;;;;;;11.63;5.85;;;;;;;8.90;71.09;101993.34;5280336;28;20527;-68
2023/04/27 07:22:59;;;;;;;12.20;6.47;;;;;;;9.25;73.13;101996.47;5268297;28;20573;-68
2023/04/27 07:25:30;;;;;;;8.38;6.10;;;;;;;9.27;70.87;101994.59;5275829;28;20559;-68
2023/04/27 07:28:02;;;;;;;9.65;6.35;;;;;;;9.56;69.31;102007.69;5274039;28;20040;-69
2023/04/27 07:30:35;;;;;;;10.23;6.32;;;;;;;9.65;68.16;102007.09;5273398;28;20059;-68
2023/04/27 07:33:13;;;;;;;10.57;6.45;;;;;;;9.67;66.66;102002.63;5274587;27;20409;-69
2023/04/27 07:35:44;;;;;;;11.18;7.15;;;;;;;9.72;65.04;102008.41;5268518;28;20509;-69
2023/04/27 07:38:18;;;;;;;11.73;6.90;;;;;;;9.89;65.58;102002.13;5269709;28;20024;-69
2023/04/27 07:40:51;;;;;;;12.50;7.68;;;;;;;9.90;64.63;102009.03;5271353;28;20036;-69
2023/04/27 07:43:24;;;;;;;11.00;7.63;;;;;;;9.97;63.02;102000.69;5274883;28;20163;-69
2023/04/27 07:45:57;;;;;;;;;;;;;;;10.58;63.89;102003.75;5273183;28;20325;-69
2023/04/27 07:48:29;;;;;;;10.40;6.57;;;;;;;10.20;62.54;102001.81;5274108;28;20461;-69
2023/04/27 07:51:00;;;;;;;10.13;6.13;;;;;;;10.24;61.98;102005.09;5271660;28;20182;-69
2023/04/27 07:53:34;;;;;;;9.98;6.50;;;;;;;10.23;60.46;102001.63;5277904;28;20275;-69
2023/04/27 07:56:05;;;;;;;9.82;6.22;;;;;;;10.21;59.56;101995.63;5276611;28;20028;-69
2023/04/27 07:58:37;;;;;;;8.25;6.32;;;;;;;10.40;59.63;101997.94;5276716;28;20056;-69
2023/04/27 08:01:08;;;;;;;9.85;5.88;;;;;;;10.56;59.21;101991.69;5282302;28;20258;-68
2023/04/27 08:03:39;;;;;;;8.30;5.85;;;;;;;10.73;56.65;101994.03;5316348;28;20557;-69
2023/04/27 08:06:10;;;;;;;10.00;5.53;;;;;;;10.92;57.37;101991.84;5299483;28;20721;-69
2023/04/27 08:08:42;;;;;;;9.45;5.82;;;;;;;10.93;56.03;101996.13;5293570;28;20032;-69
2023/04/27 08:11:13;;;;;;;8.43;5.43;;;;;;;11.12;54.95;102006.19;5299882;28;20019;-69
2023/04/27 08:13:44;;;;;;;8.15;5.07;;;;;;;11.30;54.44;102001.47;5310892;28;20028;-69
2023/04/27 08:16:16;;;;;;;9.57;5.18;;;;;;;11.63;54.98;102000.03;5312441;28;20033;-69
2023/04/27 08:18:48;;;;;;;8.85;5.57;;;;;;;11.66;53.18;101998.03;5312283;28;20291;-69
2023/04/27 08:21:19;;;;;;;8.23;5.70;;;;;;;11.60;51.17;102001.13;5292690;28;20084;-70
2023/04/27 08:23:51;;;;;;;8.77;5.43;;;;;;;11.67;52.19;101993.66;5314604;28;20465;-69
2023/04/27 08:26:22;;;;;;;7.55;5.35;;;;;;;11.68;51.31;101998.78;5314659;28;20472;-70
2023/04/27 08:28:55;;;;;;;7.55;4.60;;;;;;;11.85;52.19;101973.13;5313049;28;20028;-70
2023/04/27 08:31:26;;;;;;;;;;;;;;;12.55;53.61;101975.00;5315761;28;20096;-70
2023/04/27 08:33:58;;;;;;;6.03;3.75;;;;;;;12.12;49.16;101971.16;5314927;28;20381;-70
2023/04/27 08:36:29;;;;;;;9.25;4.05;;;;;;;12.14;49.25;101963.97;5316406;27;20103;-70
2023/04/27 08:39:00;;;;;;;7.22;4.35;;;;;;;12.37;51.81;101959.63;5313561;28;20039;-70
2023/04/27 08:41:32;;;;;;;6.32;4.70;;;;;;;12.55;49.39;101959.22;5310341;28;20024;-70
2023/04/27 08:44:07;;;;;;;7.90;4.45;;;;;;;12.50;49.15;101961.34;5303206;28;20032;-70
2023/04/27 08:46:38;;;;;;;8.13;3.88;;;;;;;12.53;46.89;101959.31;5302984;28;20036;-69
2023/04/27 08:49:10;;;;;;;7.18;4.13;;;;;;;12.49;46.08;101943.91;5295739;28;20480;-70
2023/04/27 08:51:41;;;;;;;6.03;3.13;;;;;;;12.68;45.63;101964.38;5300271;28;20287;-70
2023/04/27 08:54:13;;;;;;;7.40;4.07;;;;;;;12.54;45.14;101966.28;5295751;28;20024;-70
2023/04/27 08:56:44;;;;;;;7.22;3.97;;;;;;;12.61;46.18;101969.25;5295413;28;20085;-70
2023/04/27 08:59:16;;;;;;;5.75;3.75;;;;;;;12.61;45.33;101971.88;5296662;28;20028;-70
2023/04/27 09:01:48;;;;;;;6.57;3.40;;;;;;;12.78;45.27;101968.84;5295562;28;20050;-70
2023/04/27 09:04:19;;;;;;;5.15;3.13;;;;;;;13.04;45.42;101968.63;5297642;28;20023;-70
2023/04/27 09:06:51;;;;;;;5.53;3.70;;;;;;;13.03;43.41;101967.81;5302590;28;20028;-70
2023/04/27 09:09:23;;;;;;;6.13;3.00;;;;;;;13.02;42.68;101967.91;5300692;28;20031;-70
2023/04/27 09:11:55;;;;;;;5.93;3.53;;;;;;;13.02;42.43;101967.91;5299420;28;20024;-70
2023/04/27 09:14:26;;;;;;;6.45;2.67;;;;;;;13.26;43.25;101962.53;5300706;28;20408;-70
2023/04/27 09:16:58;;;;;;;6.78;3.55;;;;;;;13.34;43.69;101957.53;5301237;28;20106;-70
2023/04/27 09:19:30;;;;;;;6.70;3.60;;;;;;;13.39;41.84;101963.28;5299606;28;20028;-69
2023/04/27 09:22:07;;;;;;;8.77;3.58;;;;;;;13.57;42.64;101961.81;5300035;28;20035;-70
2023/04/27 09:24:49;;;;;;;6.72;3.15;;;;;;;13.70;41.41;101968.72;5297267;28;20465;-69
2023/04/27 09:27:22;;;;;;;5.55;2.95;;;;;;;13.50;40.04;101962.44;5299770;28;20036;-70
2023/04/27 09:29:53;;;;;;;6.10;3.08;;;;;;;13.34;39.49;101955.75;5285948;28;20392;-70
2023/04/27 09:32:24;;;;;;;6.28;3.22;;;;;;;13.63;40.47;101966.56;5298982;28;20051;-69
2023/04/27 09:34:56;;;;;;;5.22;2.95;;;;;;;13.84;41.23;101955.28;5279621;28;20032;-70
2023/04/27 09:37:28;;;;;;;6.40;2.92;;;;;;;14.02;40.11;101959.06;5298954;28;20028;-70
2023/04/27 09:40:01;;;;;;;4.18;2.63;;;;;;;14.03;37.30;101959.91;5297582;28;20496;-70
2023/04/27 09:42:33;;;;;;;5.00;3.15;;;;;;;13.88;37.47;101954.09;5291484;28;20022;-70
2023/04/27 09:45:06;;;;;;;6.38;2.78;;;;;;;14.03;37.60;101955.47;5299017;28;20035;-71
2023/04/27 09:47:37;;;;;;;;;;;;;;;14.70;39.38;101945.56;5299274;28;20044;-70
2023/04/27 09:50:11;;;;;;;6.83;3.10;;;;;;;14.26;38.28;101950.94;5294847;28;20412;-70
2023/04/27 09:52:44;;;;;;;5.05;2.95;;;;;;;14.48;39.30;101944.72;5298517;28;21113;-71
2023/04/27 09:55:24;;;;;;;5.22;3.30;;;;;;;14.70;38.76;101943.78;5292543;28;20087;-70
2023/04/27 09:58:24;;;;;;;5.15;2.70;;;;;;;15.05;37.81;101934.66;5297981;28;20036;-70
2023/04/27 10:01:22;;;;;;;5.70;2.80;;;;;;;15.22;38.22;101935.81;5279621;28;20028;-70
2023/04/27 10:04:31;;;;;;;3.72;2.90;;;;;;;15.32;37.69;101924.31;5293624;28;20457;-70
2023/04/27 10:07:13;;;;;;;5.32;3.47;;;;;;;15.25;37.40;101931.09;5296852;28;20106;-70
2023/04/27 10:09:52;;;;;;;5.10;3.28;;;;;;;15.10;36.87;101927.16;5275745;28;20027;-70
2023/04/27 10:12:31;;;;;;;6.65;3.80;;;;;;;15.09;37.20;101931.59;5298383;28;20032;-71
2023/04/27 10:15:14;;;;;;;4.97;3.67;;;;;;;15.28;37.58;101925.56;5288699;28;20111;-70
2023/04/27 10:17:48;;;;;;;6.85;3.35;;;;;;;15.22;37.38;101934.00;5285176;28;20028;-70
2023/04/27 10:20:35;;;;;;;4.60;3.25;;;;;;;15.36;36.36;101939.91;5281747;28;20032;-70
2023/04/27 10:23:07;;;;;;;5.40;3.50;;;;;;;15.18;34.89;101940.53;5299323;28;20028;-70
2023/04/27 10:25:40;;;;;;;5.47;3.47;;;;;;;15.27;35.06;101939.72;5292557;28;20039;-71
2023/04/27 10:28:16;;;;;;;5.97;2.95;;;;;;;15.42;35.52;101937.56;5294144;28;20059;-70
2023/04/27 10:30:48;;;;;;;7.15;3.30;;;;;;;15.47;37.68;101939.78;5295278;28;20031;-71
2023/04/27 10:33:21;;;;;;;5.18;3.50;;;;;;;15.35;35.79;101940.88;5295182;28;20040;-70
2023/04/27 10:35:55;;;;;;;5.07;3.08;;;;;;;15.51;37.74;101938.53;5298329;28;20080;-70
2023/04/27 10:38:31;;;;;;;5.10;3.35;;;;;;;15.44;35.67;101932.97;5278435;28;20103;-70
2023/04/27 10:41:06;;;;;;;6.57;3.30;;;;;;;15.36;35.92;101924.88;5296501;28;20028;-70
2023/04/27 10:43:37;;;;;;;6.15;4.10;;;;;;;15.18;35.31;101924.69;5295192;28;20047;-70
2023/04/27 10:46:11;;;;;;;6.80;3.83;;;;;;;15.32;36.45;101915.56;5296218;28;20028;-70
2023/04/27 10:48:43;;;;;;;5.32;3.30;;;;;;;15.25;34.65;101917.06;5295186;28;20111;-71
2023/04/27 10:51:16;;;;;;;7.80;3.50;;;;;;;15.38;35.75;101907.13;5296088;28;20398;-71
2023/04/27 10:53:51;;;;;;;6.40;3.88;;;;;;;15.31;33.83;101913.91;5295724;28;20650;-71
2023/04/27 10:56:23;;;;;;;8.40;3.63;;;;;;;15.12;34.27;101914.69;5297409;28;20469;-71
2023/04/27 10:59:00;;;;;;;6.43;3.67;;;;;;;15.31;34.51;101912.09;5297544;28;20020;-71
2023/04/27 11:01:32;;;;;;;7.22;3.60;;;;;;;15.27;33.89;101902.78;5292179;28;20246;-70
2023/04/27 11:04:04;;;;;;;5.60;3.10;;;;;;;15.37;33.21;101892.22;5296042;28;20028;-71
2023/04/27 11:06:44;;;;;;;5.03;3.50;;;;;;;15.58;34.14;101892.13;5293024;28;20028;-71
2023/04/27 11:09:26;;;;;;;4.55;3.33;;;;;;;15.70;33.39;101890.22;5292960;28;20047;-71
2023/04/27 11:11:57;;;;;;;7.28;4.22;;;;;;;15.31;33.03;101880.41;5289009;28;20028;-70
2023/04/27 11:14:29;;;;;;;6.88;3.50;;;;;;;15.54;34.86;101882.81;5293028;28;20031;-70
2023/04/27 11:17:00;;;;;;;5.13;3.40;;;;;;;15.50;32.75;101882.25;5274339;28;20059;-71
2023/04/27 11:19:31;;;;;;;5.25;3.58;;;;;;;15.26;32.78;101885.25;5298457;28;20084;-70
2023/04/27 11:22:05;;;;;;;5.25;3.33;;;;;;;15.61;35.66;101876.00;5294249;28;20032;-71
2023/04/27 11:24:36;;;;;;;5.78;3.65;;;;;;;15.69;34.41;101873.53;5282667;28;20019;-71
2023/04/27 11:27:07;;;;;;;6.10;4.22;;;;;;;15.70;33.34;101877.84;5296186;28;20031;-71
2023/04/27 11:29:39;;;;;;;5.05;3.42;;;;;;;15.85;33.39;101878.28;5296803;28;20707;-70
2023/04/27 11:32:21;;;;;;;7.20;3.88;;;;;;;16.00;33.31;101868.94;5293827;28;20579;-71
2023/04/27 11:34:53;;;;;;;9.50;4.45;;;;;;;15.93;32.24;101875.75;5298432;28;20085;-71
2023/04/27 11:37:26;;;;;;;6.43;4.28;;;;;;;15.71;33.08;101871.59;5297700;28;20296;-71
2023/04/27 11:39:59;;;;;;;;;;;;;;;16.51;32.73;101872.19;5292042;28;20301;-71
2023/04/27 11:42:30;;;;;;;6.07;3.77;;;;;;;16.10;33.13;101868.94;5293233;28;19920;-70
2023/04/27 11:45:10;;;;;;;5.93;3.83;;;;;;;16.17;31.72;101869.19;5294931;28;20028;-70
2023/04/27 11:47:45;;;;;;;8.55;4.00;;;;;;;15.93;31.86;101865.19;5293897;28;20020;-71
2023/04/27 11:50:16;;;;;;;7.32;4.20;;;;;;;15.93;32.07;101865.19;5289109;28;20495;-70